sensor_id;sensor_type;location;lat;lon;timestamp;P1;durP1;ratioP1;P2;durP2;ratioP2
6013;SDS011;3035;49.928;8.410;2024-03-29T00:00:17;3.20;;;1.70;;
6013;SDS011;3035;49.928;8.410;2024-03-29T00:02:44;6.27;;;1.87;;
6013;SDS011;3035;49.928;8.410;2024-03-29T00:05:12;3.00;;;1.70;;
6013;SDS011;3035;49.928;8.410;2024-03-29T00:07:39;4.10;;;1.50;;
6013;SDS011;3035;49.928;8.410;2024-03-29T00:10:07;1.80;;;1.37;;
6013;SDS011;3035;49.928;8.410;2024-03-29T00:12:34;4.97;;;1.40;;
6013;SDS011;3035;49.928;8.410;2024-03-29T00:15:02;2.47;;;1.30;;
6013;SDS011;3035;49.928;8.410;2024-03-29T00:17:29;2.30;;;1.20;;
6013;SDS011;3035;49.928;8.410;2024-03-29T00:19:58;2.30;;;1.40;;
6013;SDS011;3035;49.928;8.410;2024-03-29T00:22:25;3.50;;;1.30;;
6013;SDS011;3035;49.928;8.410;2024-03-29T00:24:53;3.43;;;1.67;;
6013;SDS011;3035;49.928;8.410;2024-03-29T00:27:22;4.13;;;1.40;;
6013;SDS011;3035;49.928;8.410;2024-03-29T00:29:50;2.47;;;1.47;;
6013;SDS011;3035;49.928;8.410;2024-03-29T00:32:19;3.27;;;1.80;;
6013;SDS011;3035;49.928;8.410;2024-03-29T00:34:46;2.17;;;1.50;;
6013;SDS011;3035;49.928;8.410;2024-03-29T00:37:14;5.80;;;1.67;;
6013;SDS011;3035;49.928;8.410;2024-03-29T00:39:42;4.00;;;1.70;;
6013;SDS011;3035;49.928;8.410;2024-03-29T00:42:10;3.97;;;1.57;;
6013;SDS011;3035;49.928;8.410;2024-03-29T00:44:39;2.77;;;1.43;;
6013;SDS011;3035;49.928;8.410;2024-03-29T00:47:07;3.07;;;1.67;;
6013;SDS011;3035;49.928;8.410;2024-03-29T00:49:35;4.30;;;1.50;;
6013;SDS011;3035;49.928;8.410;2024-03-29T00:52:03;2.73;;;1.60;;
6013;SDS011;3035;49.928;8.410;2024-03-29T00:54:31;2.90;;;1.20;;
6013;SDS011;3035;49.928;8.410;2024-03-29T00:56:59;5.10;;;1.60;;
6013;SDS011;3035;49.928;8.410;2024-03-29T00:59:26;4.40;;;1.53;;
6013;SDS011;3035;49.928;8.410;2024-03-29T01:01:54;3.20;;;1.57;;
6013;SDS011;3035;49.928;8.410;2024-03-29T01:04:22;6.23;;;1.60;;
6013;SDS011;3035;49.928;8.410;2024-03-29T01:06:50;5.50;;;1.10;;
6013;SDS011;3035;49.928;8.410;2024-03-29T01:09:19;2.50;;;1.67;;
6013;SDS011;3035;49.928;8.410;2024-03-29T01:11:46;3.17;;;1.73;;
6013;SDS011;3035;49.928;8.410;2024-03-29T01:14:14;2.30;;;1.20;;
6013;SDS011;3035;49.928;8.410;2024-03-29T01:16:42;1.10;;;0.90;;
6013;SDS011;3035;49.928;8.410;2024-03-29T01:19:10;2.33;;;1.50;;
6013;SDS011;3035;49.928;8.410;2024-03-29T01:21:38;2.53;;;1.60;;
6013;SDS011;3035;49.928;8.410;2024-03-29T01:24:06;2.40;;;1.43;;
6013;SDS011;3035;49.928;8.410;2024-03-29T01:26:34;2.23;;;1.53;;
6013;SDS011;3035;49.928;8.410;2024-03-29T01:29:02;4.10;;;1.60;;
6013;SDS011;3035;49.928;8.410;2024-03-29T01:31:31;4.23;;;1.50;;
6013;SDS011;3035;49.928;8.410;2024-03-29T01:33:59;3.10;;;1.50;;
6013;SDS011;3035;49.928;8.410;2024-03-29T01:36:27;6.50;;;1.63;;
6013;SDS011;3035;49.928;8.410;2024-03-29T01:38:55;6.50;;;1.37;;
6013;SDS011;3035;49.928;8.410;2024-03-29T01:41:23;5.23;;;1.50;;
6013;SDS011;3035;49.928;8.410;2024-03-29T01:43:50;4.00;;;1.70;;
6013;SDS011;3035;49.928;8.410;2024-03-29T01:46:18;3.03;;;1.50;;
6013;SDS011;3035;49.928;8.410;2024-03-29T01:48:44;4.50;;;1.30;;
6013;SDS011;3035;49.928;8.410;2024-03-29T01:51:13;1.67;;;1.43;;
6013;SDS011;3035;49.928;8.410;2024-03-29T01:53:40;1.57;;;1.13;;
6013;SDS011;3035;49.928;8.410;2024-03-29T01:56:08;2.30;;;1.37;;
6013;SDS011;3035;49.928;8.410;2024-03-29T01:58:36;3.37;;;1.20;;
6013;SDS011;3035;49.928;8.410;2024-03-29T02:01:04;2.17;;;1.30;;
6013;SDS011;3035;49.928;8.410;2024-03-29T02:03:32;3.20;;;1.50;;
6013;SDS011;3035;49.928;8.410;2024-03-29T02:06:00;4.33;;;1.53;;
6013;SDS011;3035;49.928;8.410;2024-03-29T02:08:28;3.70;;;1.57;;
6013;SDS011;3035;49.928;8.410;2024-03-29T02:10:56;3.50;;;1.70;;
6013;SDS011;3035;49.928;8.410;2024-03-29T02:13:24;3.33;;;1.47;;
6013;SDS011;3035;49.928;8.410;2024-03-29T02:33:14;4.63;;;2.30;;
6013;SDS011;3035;49.928;8.410;2024-03-29T02:35:42;4.63;;;1.70;;
6013;SDS011;3035;49.928;8.410;2024-03-29T02:38:10;5.93;;;1.97;;
6013;SDS011;3035;49.928;8.410;2024-03-29T02:40:38;2.73;;;1.43;;
6013;SDS011;3035;49.928;8.410;2024-03-29T02:43:07;2.63;;;1.40;;
6013;SDS011;3035;49.928;8.410;2024-03-29T02:45:36;9.23;;;1.70;;
6013;SDS011;3035;49.928;8.410;2024-03-29T02:48:04;2.23;;;1.17;;
6013;SDS011;3035;49.928;8.410;2024-03-29T02:50:33;3.17;;;1.83;;
6013;SDS011;3035;49.928;8.410;2024-03-29T02:53:01;2.97;;;1.53;;
6013;SDS011;3035;49.928;8.410;2024-03-29T02:55:30;2.57;;;1.80;;
6013;SDS011;3035;49.928;8.410;2024-03-29T02:57:58;4.30;;;1.90;;
6013;SDS011;3035;49.928;8.410;2024-03-29T03:00:26;2.40;;;1.67;;
6013;SDS011;3035;49.928;8.410;2024-03-29T03:02:54;3.13;;;1.83;;
6013;SDS011;3035;49.928;8.410;2024-03-29T03:05:22;5.30;;;1.30;;
6013;SDS011;3035;49.928;8.410;2024-03-29T03:07:51;7.20;;;1.40;;
6013;SDS011;3035;49.928;8.410;2024-03-29T03:10:24;3.20;;;1.73;;
6013;SDS011;3035;49.928;8.410;2024-03-29T03:12:58;4.80;;;1.60;;
6013;SDS011;3035;49.928;8.410;2024-03-29T03:15:26;2.63;;;1.30;;
6013;SDS011;3035;49.928;8.410;2024-03-29T03:17:55;4.67;;;1.43;;
6013;SDS011;3035;49.928;8.410;2024-03-29T03:20:22;9.10;;;2.20;;
6013;SDS011;3035;49.928;8.410;2024-03-29T03:22:51;1.60;;;1.43;;
6013;SDS011;3035;49.928;8.410;2024-03-29T03:25:19;4.30;;;2.33;;
6013;SDS011;3035;49.928;8.410;2024-03-29T03:27:47;10.73;;;1.60;;
6013;SDS011;3035;49.928;8.410;2024-03-29T03:30:15;2.60;;;1.47;;
6013;SDS011;3035;49.928;8.410;2024-03-29T03:32:44;3.50;;;1.53;;
6013;SDS011;3035;49.928;8.410;2024-03-29T03:35:12;7.33;;;1.70;;
6013;SDS011;3035;49.928;8.410;2024-03-29T03:37:40;2.17;;;1.17;;
6013;SDS011;3035;49.928;8.410;2024-03-29T03:40:08;2.37;;;1.20;;
6013;SDS011;3035;49.928;8.410;2024-03-29T03:42:38;2.80;;;1.60;;
6013;SDS011;3035;49.928;8.410;2024-03-29T03:45:06;8.83;;;1.53;;
6013;SDS011;3035;49.928;8.410;2024-03-29T03:47:34;4.13;;;1.70;;
6013;SDS011;3035;49.928;8.410;2024-03-29T03:50:02;2.70;;;1.40;;
6013;SDS011;3035;49.928;8.410;2024-03-29T03:52:31;3.67;;;1.40;;
6013;SDS011;3035;49.928;8.410;2024-03-29T03:54:59;2.70;;;1.20;;
6013;SDS011;3035;49.928;8.410;2024-03-29T03:57:28;5.10;;;1.50;;
6013;SDS011;3035;49.928;8.410;2024-03-29T03:59:56;4.40;;;1.63;;
6013;SDS011;3035;49.928;8.410;2024-03-29T04:02:25;2.13;;;1.43;;
6013;SDS011;3035;49.928;8.410;2024-03-29T04:04:53;2.33;;;1.27;;
6013;SDS011;3035;49.928;8.410;2024-03-29T04:07:22;4.20;;;1.33;;
6013;SDS011;3035;49.928;8.410;2024-03-29T04:09:50;3.63;;;1.80;;
6013;SDS011;3035;49.928;8.410;2024-03-29T04:12:18;2.47;;;1.30;;
6013;SDS011;3035;49.928;8.410;2024-03-29T04:14:46;14.67;;;1.97;;
6013;SDS011;3035;49.928;8.410;2024-03-29T04:17:14;4.27;;;1.80;;
6013;SDS011;3035;49.928;8.410;2024-03-29T04:19:43;4.57;;;1.67;;
6013;SDS011;3035;49.928;8.410;2024-03-29T04:22:11;2.87;;;1.40;;
6013;SDS011;3035;49.928;8.410;2024-03-29T04:24:39;3.77;;;1.80;;
6013;SDS011;3035;49.928;8.410;2024-03-29T04:27:07;4.90;;;1.90;;
6013;SDS011;3035;49.928;8.410;2024-03-29T04:29:36;5.30;;;1.50;;
6013;SDS011;3035;49.928;8.410;2024-03-29T04:32:04;3.90;;;1.37;;
6013;SDS011;3035;49.928;8.410;2024-03-29T04:34:33;11.43;;;1.40;;
6013;SDS011;3035;49.928;8.410;2024-03-29T04:37:00;7.77;;;1.80;;
6013;SDS011;3035;49.928;8.410;2024-03-29T04:39:29;3.93;;;1.30;;
6013;SDS011;3035;49.928;8.410;2024-03-29T04:41:58;3.33;;;1.33;;
6013;SDS011;3035;49.928;8.410;2024-03-29T04:44:26;10.03;;;2.00;;
6013;SDS011;3035;49.928;8.410;2024-03-29T04:46:54;4.27;;;1.90;;
6013;SDS011;3035;49.928;8.410;2024-03-29T04:49:23;4.43;;;1.80;;
6013;SDS011;3035;49.928;8.410;2024-03-29T04:51:51;4.87;;;1.70;;
6013;SDS011;3035;49.928;8.410;2024-03-29T04:54:20;9.13;;;1.60;;
6013;SDS011;3035;49.928;8.410;2024-03-29T04:56:48;4.67;;;2.03;;
6013;SDS011;3035;49.928;8.410;2024-03-29T04:59:17;2.33;;;1.57;;
6013;SDS011;3035;49.928;8.410;2024-03-29T05:01:46;10.33;;;1.93;;
6013;SDS011;3035;49.928;8.410;2024-03-29T05:04:16;3.43;;;1.60;;
6013;SDS011;3035;49.928;8.410;2024-03-29T05:06:44;2.63;;;1.37;;
6013;SDS011;3035;49.928;8.410;2024-03-29T05:09:13;5.23;;;1.57;;
6013;SDS011;3035;49.928;8.410;2024-03-29T05:11:41;4.13;;;1.47;;
6013;SDS011;3035;49.928;8.410;2024-03-29T05:14:09;2.10;;;1.57;;
6013;SDS011;3035;49.928;8.410;2024-03-29T05:16:37;1.83;;;1.30;;
6013;SDS011;3035;49.928;8.410;2024-03-29T05:19:06;7.80;;;1.63;;
6013;SDS011;3035;49.928;8.410;2024-03-29T05:21:34;4.23;;;1.70;;
6013;SDS011;3035;49.928;8.410;2024-03-29T05:24:02;4.63;;;1.33;;
6013;SDS011;3035;49.928;8.410;2024-03-29T05:26:30;5.23;;;1.97;;
6013;SDS011;3035;49.928;8.410;2024-03-29T05:28:59;3.20;;;1.50;;
6013;SDS011;3035;49.928;8.410;2024-03-29T05:31:27;3.30;;;1.60;;
6013;SDS011;3035;49.928;8.410;2024-03-29T05:33:55;1.73;;;1.50;;
6013;SDS011;3035;49.928;8.410;2024-03-29T05:36:23;3.87;;;2.17;;
6013;SDS011;3035;49.928;8.410;2024-03-29T05:38:51;2.63;;;1.93;;
6013;SDS011;3035;49.928;8.410;2024-03-29T05:41:20;2.13;;;1.40;;
6013;SDS011;3035;49.928;8.410;2024-03-29T05:43:48;3.63;;;1.30;;
6013;SDS011;3035;49.928;8.410;2024-03-29T05:46:16;2.63;;;1.60;;
6013;SDS011;3035;49.928;8.410;2024-03-29T05:48:44;4.33;;;1.80;;
6013;SDS011;3035;49.928;8.410;2024-03-29T05:51:14;2.60;;;1.50;;
6013;SDS011;3035;49.928;8.410;2024-03-29T05:53:43;3.67;;;1.23;;
6013;SDS011;3035;49.928;8.410;2024-03-29T05:56:12;2.77;;;1.30;;
6013;SDS011;3035;49.928;8.410;2024-03-29T05:58:41;3.00;;;1.27;;
6013;SDS011;3035;49.928;8.410;2024-03-29T06:01:09;4.10;;;1.33;;
6013;SDS011;3035;49.928;8.410;2024-03-29T06:03:38;3.70;;;1.33;;
6013;SDS011;3035;49.928;8.410;2024-03-29T06:06:06;3.17;;;1.70;;
6013;SDS011;3035;49.928;8.410;2024-03-29T06:08:34;1.83;;;1.33;;
6013;SDS011;3035;49.928;8.410;2024-03-29T06:11:03;2.00;;;1.17;;
6013;SDS011;3035;49.928;8.410;2024-03-29T06:13:31;3.80;;;1.90;;
6013;SDS011;3035;49.928;8.410;2024-03-29T06:16:15;4.90;;;1.70;;
6013;SDS011;3035;49.928;8.410;2024-03-29T06:18:48;3.07;;;1.50;;
6013;SDS011;3035;49.928;8.410;2024-03-29T06:21:16;2.13;;;1.53;;
6013;SDS011;3035;49.928;8.410;2024-03-29T06:23:45;5.37;;;1.70;;
6013;SDS011;3035;49.928;8.410;2024-03-29T06:26:13;2.90;;;1.70;;
6013;SDS011;3035;49.928;8.410;2024-03-29T06:28:41;3.20;;;2.00;;
6013;SDS011;3035;49.928;8.410;2024-03-29T06:31:09;7.70;;;1.50;;
6013;SDS011;3035;49.928;8.410;2024-03-29T06:33:37;2.57;;;1.50;;
6013;SDS011;3035;49.928;8.410;2024-03-29T06:36:06;4.53;;;1.57;;
6013;SDS011;3035;49.928;8.410;2024-03-29T06:38:34;5.60;;;1.83;;
6013;SDS011;3035;49.928;8.410;2024-03-29T06:41:02;1.37;;;1.27;;
6013;SDS011;3035;49.928;8.410;2024-03-29T06:43:30;2.30;;;1.37;;
6013;SDS011;3035;49.928;8.410;2024-03-29T06:45:59;4.50;;;1.37;;
6013;SDS011;3035;49.928;8.410;2024-03-29T06:48:27;4.80;;;1.90;;
6013;SDS011;3035;49.928;8.410;2024-03-29T06:50:55;1.63;;;1.23;;
6013;SDS011;3035;49.928;8.410;2024-03-29T06:53:23;4.03;;;2.10;;
6013;SDS011;3035;49.928;8.410;2024-03-29T06:55:51;2.00;;;1.70;;
6013;SDS011;3035;49.928;8.410;2024-03-29T06:58:20;3.90;;;1.77;;
6013;SDS011;3035;49.928;8.410;2024-03-29T07:00:48;1.87;;;1.50;;
6013;SDS011;3035;49.928;8.410;2024-03-29T07:03:16;5.53;;;1.70;;
6013;SDS011;3035;49.928;8.410;2024-03-29T07:05:45;5.90;;;1.80;;
6013;SDS011;3035;49.928;8.410;2024-03-29T07:08:13;3.17;;;1.40;;
6013;SDS011;3035;49.928;8.410;2024-03-29T07:10:41;3.77;;;1.27;;
6013;SDS011;3035;49.928;8.410;2024-03-29T07:13:10;4.33;;;1.40;;
6013;SDS011;3035;49.928;8.410;2024-03-29T07:15:38;5.00;;;1.43;;
6013;SDS011;3035;49.928;8.410;2024-03-29T07:18:06;4.10;;;1.77;;
6013;SDS011;3035;49.928;8.410;2024-03-29T07:20:34;2.53;;;1.50;;
6013;SDS011;3035;49.928;8.410;2024-03-29T07:23:03;7.40;;;1.73;;
6013;SDS011;3035;49.928;8.410;2024-03-29T07:25:31;3.57;;;1.60;;
6013;SDS011;3035;49.928;8.410;2024-03-29T07:27:59;4.07;;;2.10;;
6013;SDS011;3035;49.928;8.410;2024-03-29T07:30:27;1.63;;;1.20;;
6013;SDS011;3035;49.928;8.410;2024-03-29T07:32:55;1.53;;;1.43;;
6013;SDS011;3035;49.928;8.410;2024-03-29T07:35:24;1.70;;;1.60;;
6013;SDS011;3035;49.928;8.410;2024-03-29T07:37:52;3.87;;;1.80;;
6013;SDS011;3035;49.928;8.410;2024-03-29T07:40:20;1.43;;;1.33;;
6013;SDS011;3035;49.928;8.410;2024-03-29T07:42:48;2.70;;;1.10;;
6013;SDS011;3035;49.928;8.410;2024-03-29T07:45:16;1.47;;;1.20;;
6013;SDS011;3035;49.928;8.410;2024-03-29T07:47:45;1.90;;;1.60;;
6013;SDS011;3035;49.928;8.410;2024-03-29T07:50:13;2.03;;;1.57;;
6013;SDS011;3035;49.928;8.410;2024-03-29T07:52:41;2.70;;;1.63;;
6013;SDS011;3035;49.928;8.410;2024-03-29T07:55:09;15.33;;;1.50;;
6013;SDS011;3035;49.928;8.410;2024-03-29T07:57:38;3.77;;;2.00;;
6013;SDS011;3035;49.928;8.410;2024-03-29T08:00:06;4.10;;;1.90;;
6013;SDS011;3035;49.928;8.410;2024-03-29T08:02:35;2.07;;;1.50;;
6013;SDS011;3035;49.928;8.410;2024-03-29T08:05:03;3.33;;;1.57;;
6013;SDS011;3035;49.928;8.410;2024-03-29T08:07:31;1.53;;;1.30;;
6013;SDS011;3035;49.928;8.410;2024-03-29T08:09:59;9.90;;;1.80;;
6013;SDS011;3035;49.928;8.410;2024-03-29T08:12:28;1.67;;;1.50;;
6013;SDS011;3035;49.928;8.410;2024-03-29T08:14:56;4.00;;;2.03;;
6013;SDS011;3035;49.928;8.410;2024-03-29T08:17:24;1.97;;;1.57;;
6013;SDS011;3035;49.928;8.410;2024-03-29T08:19:52;2.50;;;2.20;;
6013;SDS011;3035;49.928;8.410;2024-03-29T08:22:20;2.50;;;1.80;;
6013;SDS011;3035;49.928;8.410;2024-03-29T08:24:49;4.90;;;2.20;;
6013;SDS011;3035;49.928;8.410;2024-03-29T08:27:17;2.70;;;2.33;;
6013;SDS011;3035;49.928;8.410;2024-03-29T08:29:45;3.93;;;1.80;;
6013;SDS011;3035;49.928;8.410;2024-03-29T08:32:13;4.53;;;2.20;;
6013;SDS011;3035;49.928;8.410;2024-03-29T08:34:47;2.57;;;2.20;;
6013;SDS011;3035;49.928;8.410;2024-03-29T08:37:15;5.40;;;2.47;;
6013;SDS011;3035;49.928;8.410;2024-03-29T08:39:43;4.70;;;2.73;;
6013;SDS011;3035;49.928;8.410;2024-03-29T08:42:12;8.37;;;2.73;;
6013;SDS011;3035;49.928;8.410;2024-03-29T08:44:40;6.07;;;2.60;;
6013;SDS011;3035;49.928;8.410;2024-03-29T08:47:09;5.23;;;2.60;;
6013;SDS011;3035;49.928;8.410;2024-03-29T08:49:37;6.10;;;3.27;;
6013;SDS011;3035;49.928;8.410;2024-03-29T08:52:10;7.03;;;3.53;;
6013;SDS011;3035;49.928;8.410;2024-03-29T08:54:39;5.23;;;3.60;;
6013;SDS011;3035;49.928;8.410;2024-03-29T08:57:07;5.50;;;3.67;;
6013;SDS011;3035;49.928;8.410;2024-03-29T08:59:35;4.40;;;3.73;;
6013;SDS011;3035;49.928;8.410;2024-03-29T09:02:04;6.17;;;3.20;;
6013;SDS011;3035;49.928;8.410;2024-03-29T09:04:32;6.17;;;2.93;;
6013;SDS011;3035;49.928;8.410;2024-03-29T09:07:01;6.03;;;3.67;;
6013;SDS011;3035;49.928;8.410;2024-03-29T09:09:31;6.53;;;3.30;;
6013;SDS011;3035;49.928;8.410;2024-03-29T09:11:58;8.30;;;2.27;;
6013;SDS011;3035;49.928;8.410;2024-03-29T09:14:26;3.43;;;2.40;;
6013;SDS011;3035;49.928;8.410;2024-03-29T09:16:54;3.87;;;2.40;;
6013;SDS011;3035;49.928;8.410;2024-03-29T09:19:23;11.40;;;2.53;;
6013;SDS011;3035;49.928;8.410;2024-03-29T09:21:52;2.80;;;2.33;;
6013;SDS011;3035;49.928;8.410;2024-03-29T09:24:21;6.13;;;2.37;;
6013;SDS011;3035;49.928;8.410;2024-03-29T09:26:49;4.10;;;2.63;;
6013;SDS011;3035;49.928;8.410;2024-03-29T09:29:18;2.63;;;2.40;;
6013;SDS011;3035;49.928;8.410;2024-03-29T09:31:47;5.33;;;2.50;;
6013;SDS011;3035;49.928;8.410;2024-03-29T09:34:15;5.47;;;2.67;;
6013;SDS011;3035;49.928;8.410;2024-03-29T09:36:44;5.47;;;2.43;;
6013;SDS011;3035;49.928;8.410;2024-03-29T09:39:14;3.93;;;2.40;;
6013;SDS011;3035;49.928;8.410;2024-03-29T09:41:44;4.83;;;3.10;;
6013;SDS011;3035;49.928;8.410;2024-03-29T09:44:13;7.30;;;2.93;;
6013;SDS011;3035;49.928;8.410;2024-03-29T09:46:42;5.60;;;2.90;;
6013;SDS011;3035;49.928;8.410;2024-03-29T09:49:11;4.67;;;2.70;;
6013;SDS011;3035;49.928;8.410;2024-03-29T09:51:39;9.40;;;2.33;;
6013;SDS011;3035;49.928;8.410;2024-03-29T09:54:08;2.30;;;2.10;;
6013;SDS011;3035;49.928;8.410;2024-03-29T09:56:39;3.40;;;2.13;;
6013;SDS011;3035;49.928;8.410;2024-03-29T09:59:08;7.00;;;3.00;;
6013;SDS011;3035;49.928;8.410;2024-03-29T10:01:37;3.50;;;2.73;;
6013;SDS011;3035;49.928;8.410;2024-03-29T10:04:10;3.77;;;2.80;;
6013;SDS011;3035;49.928;8.410;2024-03-29T10:06:38;5.23;;;3.07;;
6013;SDS011;3035;49.928;8.410;2024-03-29T10:09:07;6.03;;;3.10;;
6013;SDS011;3035;49.928;8.410;2024-03-29T10:11:36;6.30;;;3.20;;
